createdAt,value
2018-12-31T00:01:13.010Z,6.20
2018-12-31T00:03:40.450Z,6.30
2018-12-31T00:06:08.101Z,6.40
2018-12-31T00:08:35.648Z,6.50
2018-12-31T00:11:03.096Z,6.50
2018-12-31T00:13:30.468Z,6.60
2018-12-31T00:15:57.939Z,6.60
2018-12-31T00:18:25.290Z,6.60
2018-12-31T00:20:52.765Z,6.70
2018-12-31T00:23:20.165Z,6.70
2018-12-31T00:25:47.791Z,6.80
2018-12-31T00:28:15.119Z,6.90
2018-12-31T00:30:42.622Z,6.90
2018-12-31T00:33:09.999Z,6.80
2018-12-31T00:35:37.439Z,6.90
2018-12-31T00:38:04.779Z,6.90
2018-12-31T00:40:32.365Z,7.00
2018-12-31T00:42:59.948Z,7.00
2018-12-31T00:45:27.475Z,7.00
2018-12-31T00:47:55.096Z,7.00
2018-12-31T00:50:22.436Z,7.00
2018-12-31T00:52:49.937Z,7.00
2018-12-31T00:55:17.273Z,7.00
2018-12-31T00:57:44.701Z,7.00
2018-12-31T01:00:12.155Z,7.00
2018-12-31T01:02:39.707Z,7.00
2018-12-31T01:05:07.181Z,7.10
2018-12-31T01:07:34.824Z,7.10
2018-12-31T01:10:02.195Z,7.20
2018-12-31T01:12:29.711Z,7.20
2018-12-31T01:14:57.031Z,7.20
2018-12-31T01:17:24.455Z,7.20
2018-12-31T01:19:51.803Z,7.00
2018-12-31T01:22:19.460Z,6.80
2018-12-31T01:24:46.913Z,6.70
2018-12-31T01:27:14.344Z,6.60
2018-12-31T01:29:41.940Z,6.40
2018-12-31T01:32:09.343Z,6.40
2018-12-31T01:34:36.793Z,6.40
2018-12-31T01:37:04.221Z,6.40
2018-12-31T01:39:31.655Z,6.40
2018-12-31T01:41:59.022Z,6.40
2018-12-31T01:44:26.578Z,6.30
2018-12-31T01:46:53.932Z,6.40
2018-12-31T01:49:21.461Z,6.30
2018-12-31T01:51:48.825Z,6.40
2018-12-31T01:54:16.586Z,6.50
2018-12-31T01:56:43.941Z,6.50
2018-12-31T01:59:11.452Z,6.60
2018-12-31T02:01:38.816Z,6.50
2018-12-31T02:04:06.350Z,6.60
2018-12-31T02:06:33.845Z,6.60
2018-12-31T02:09:01.190Z,6.40
2018-12-31T02:11:28.699Z,6.40
2018-12-31T02:13:56.200Z,6.30
2018-12-31T02:16:23.726Z,6.20
2018-12-31T02:18:51.156Z,6.10
2018-12-31T02:21:18.483Z,6.20
2018-12-31T02:23:45.831Z,6.20
2018-12-31T02:26:13.722Z,6.10
2018-12-31T02:28:41.231Z,6.10
2018-12-31T02:31:08.818Z,6.10
2018-12-31T02:33:36.162Z,6.10
2018-12-31T02:36:03.628Z,6.10
2018-12-31T02:38:31.157Z,6.00
2018-12-31T02:40:58.601Z,6.10
2018-12-31T02:43:25.937Z,6.10
2018-12-31T02:45:53.425Z,6.00
2018-12-31T02:48:20.756Z,6.10
2018-12-31T02:50:48.216Z,6.10
2018-12-31T02:53:15.639Z,6.20
2018-12-31T02:55:43.041Z,6.20
2018-12-31T02:58:10.422Z,6.20
2018-12-31T03:00:37.862Z,6.20
2018-12-31T03:03:05.484Z,6.20
2018-12-31T03:05:32.817Z,6.20
2018-12-31T03:08:00.789Z,6.30
2018-12-31T03:10:28.237Z,6.20
2018-12-31T03:12:55.677Z,6.30
2018-12-31T03:15:23.004Z,6.30
2018-12-31T03:17:50.437Z,6.30
2018-12-31T03:20:17.793Z,6.10
2018-12-31T03:22:45.256Z,6.10
2018-12-31T03:25:12.721Z,6.10
2018-12-31T03:27:40.159Z,6.20
2018-12-31T03:30:07.517Z,6.20
2018-12-31T03:32:34.965Z,6.30
2018-12-31T03:35:02.398Z,6.30
2018-12-31T03:37:29.828Z,6.40
2018-12-31T03:39:57.151Z,6.40
2018-12-31T03:42:24.573Z,6.40
2018-12-31T03:44:51.940Z,6.50
2018-12-31T03:47:19.277Z,6.50
2018-12-31T03:49:46.781Z,6.50
2018-12-31T03:52:14.198Z,6.40
2018-12-31T03:54:41.777Z,6.40
2018-12-31T03:57:09.193Z,6.40
2018-12-31T03:59:36.742Z,6.50
2018-12-31T04:02:04.109Z,6.50
2018-12-31T04:04:31.580Z,6.50
2018-12-31T04:06:59.036Z,6.60
2018-12-31T04:09:26.448Z,6.70
2018-12-31T04:11:54.052Z,6.70
2018-12-31T04:14:21.484Z,6.70
2018-12-31T04:16:48.850Z,6.70
2018-12-31T04:19:16.277Z,6.70
2018-12-31T04:21:43.605Z,6.80
2018-12-31T04:24:11.045Z,6.80
2018-12-31T04:26:38.467Z,6.70
2018-12-31T04:29:05.944Z,6.70
2018-12-31T04:31:33.400Z,6.60
2018-12-31T04:34:00.856Z,6.60
2018-12-31T04:36:28.288Z,6.60
2018-12-31T04:38:55.639Z,6.60
2018-12-31T04:41:23.077Z,6.50
2018-12-31T04:43:50.403Z,6.30
2018-12-31T04:46:17.893Z,6.20
2018-12-31T04:48:45.293Z,6.10
2018-12-31T04:51:12.719Z,6.10
2018-12-31T04:53:40.055Z,6.10
2018-12-31T04:56:07.624Z,5.90
2018-12-31T04:58:34.984Z,6.00
2018-12-31T05:01:02.414Z,6.00
2018-12-31T05:03:29.757Z,6.00
2018-12-31T05:05:57.090Z,5.90
2018-12-31T05:08:24.598Z,5.90
2018-12-31T05:10:52.105Z,5.90
2018-12-31T05:13:19.519Z,5.90
2018-12-31T05:15:46.880Z,5.80
2018-12-31T05:18:14.391Z,5.80
2018-12-31T05:20:41.720Z,5.80
2018-12-31T05:23:09.248Z,5.80
2018-12-31T05:25:36.659Z,5.80
2018-12-31T05:28:04.128Z,5.80
2018-12-31T05:30:31.446Z,5.90
2018-12-31T05:32:58.940Z,5.90
2018-12-31T05:35:26.274Z,5.90
2018-12-31T05:37:53.700Z,5.90
2018-12-31T05:40:21.033Z,5.90
2018-12-31T05:42:48.442Z,6.00
2018-12-31T05:45:15.920Z,5.90
2018-12-31T05:47:43.328Z,5.90
2018-12-31T05:50:10.700Z,5.90
2018-12-31T05:52:38.180Z,5.90
2018-12-31T05:55:05.728Z,5.90
2018-12-31T05:57:33.065Z,6.00
2018-12-31T06:00:00.612Z,6.00
2018-12-31T06:02:28.081Z,6.00
2018-12-31T06:04:55.537Z,6.00
2018-12-31T06:07:22.947Z,6.10
2018-12-31T06:09:50.411Z,6.20
2018-12-31T06:12:17.758Z,6.20
2018-12-31T06:14:45.259Z,6.20
2018-12-31T06:17:12.604Z,6.20
2018-12-31T06:19:40.011Z,6.30
2018-12-31T06:22:07.332Z,6.30
2018-12-31T06:24:34.889Z,6.20
2018-12-31T06:27:02.317Z,6.20
2018-12-31T06:29:29.669Z,6.30
2018-12-31T06:31:57.095Z,6.40
2018-12-31T06:34:24.426Z,6.40
2018-12-31T06:36:51.857Z,6.40
2018-12-31T06:39:19.286Z,6.50
2018-12-31T06:41:46.696Z,6.50
2018-12-31T06:44:14.020Z,6.50
2018-12-31T06:46:41.443Z,6.60
2018-12-31T06:49:08.780Z,6.70
2018-12-31T06:51:36.257Z,6.80
2018-12-31T06:54:03.592Z,6.90
2018-12-31T06:56:31.000Z,7.10
2018-12-31T06:58:58.363Z,7.10
2018-12-31T07:01:25.936Z,7.10
2018-12-31T07:03:53.427Z,7.10
2018-12-31T07:06:21.108Z,7.10
2018-12-31T07:08:48.668Z,7.10
2018-12-31T07:11:16.110Z,7.20
2018-12-31T07:13:43.608Z,7.20
2018-12-31T07:16:10.960Z,7.20
2018-12-31T07:18:38.437Z,7.10
2018-12-31T07:21:05.772Z,7.10
2018-12-31T07:23:33.128Z,7.10
2018-12-31T07:26:00.598Z,7.10
2018-12-31T07:28:28.006Z,6.90
2018-12-31T07:30:55.451Z,6.80
2018-12-31T07:33:22.892Z,6.80
2018-12-31T07:35:50.213Z,6.70
2018-12-31T07:38:17.628Z,6.60
2018-12-31T07:40:44.997Z,6.70
2018-12-31T07:43:12.464Z,6.60
2018-12-31T07:45:39.841Z,6.60
2018-12-31T07:48:07.256Z,6.60
2018-12-31T07:50:34.853Z,6.60
2018-12-31T07:53:02.319Z,6.50
2018-12-31T07:55:29.652Z,6.40
2018-12-31T07:57:57.083Z,6.40
2018-12-31T08:00:24.505Z,6.30
2018-12-31T08:02:51.954Z,6.30
2018-12-31T08:05:19.303Z,6.30
2018-12-31T08:07:46.807Z,6.30
2018-12-31T08:10:14.228Z,6.30
2018-12-31T08:12:41.556Z,6.20
2018-12-31T08:15:09.041Z,6.20
2018-12-31T08:17:36.381Z,6.20
2018-12-31T08:20:04.041Z,6.30
2018-12-31T08:22:31.431Z,6.30
2018-12-31T08:24:58.992Z,6.30
2018-12-31T08:27:26.348Z,6.40
2018-12-31T08:29:53.760Z,6.40
2018-12-31T08:32:21.108Z,6.50
2018-12-31T08:34:48.543Z,6.50
2018-12-31T08:37:15.888Z,6.50
2018-12-31T08:39:43.438Z,6.50
2018-12-31T08:42:10.789Z,6.60
2018-12-31T08:44:38.228Z,6.60
2018-12-31T08:47:05.660Z,6.50
2018-12-31T08:49:33.075Z,6.50
2018-12-31T08:52:00.609Z,6.50
2018-12-31T08:54:28.130Z,6.50
2018-12-31T08:56:55.601Z,6.50
2018-12-31T08:59:22.936Z,6.40
2018-12-31T09:01:50.481Z,6.50
2018-12-31T09:04:17.918Z,6.60
2018-12-31T09:06:45.451Z,6.50
2018-12-31T09:09:12.892Z,6.60
2018-12-31T09:11:40.336Z,6.60
2018-12-31T09:14:07.738Z,6.60
2018-12-31T09:16:35.115Z,6.60
2018-12-31T09:19:02.561Z,6.60
2018-12-31T09:21:30.020Z,6.60
2018-12-31T09:23:57.434Z,6.60
2018-12-31T09:26:24.780Z,6.70
2018-12-31T09:28:52.630Z,6.70
2018-12-31T09:31:19.971Z,6.70
2018-12-31T09:33:47.492Z,6.60
2018-12-31T09:36:14.939Z,6.60
2018-12-31T09:38:42.478Z,6.70
2018-12-31T09:41:09.846Z,6.70
2018-12-31T09:43:37.307Z,6.70
2018-12-31T09:46:04.684Z,6.70
2018-12-31T09:48:32.132Z,6.80
2018-12-31T09:50:59.547Z,6.90
2018-12-31T09:53:27.137Z,6.90
2018-12-31T09:55:54.649Z,6.90
2018-12-31T09:58:22.132Z,6.90
2018-12-31T10:00:49.604Z,6.90
2018-12-31T10:03:17.031Z,6.90
2018-12-31T10:05:44.500Z,6.90
2018-12-31T10:08:12.148Z,6.90
2018-12-31T10:10:39.501Z,6.90
2018-12-31T10:13:06.891Z,6.90
2018-12-31T10:15:34.349Z,6.90
2018-12-31T10:18:01.732Z,6.90
2018-12-31T10:20:29.416Z,6.90
2018-12-31T10:22:56.782Z,6.90
2018-12-31T10:25:24.277Z,7.00
2018-12-31T10:27:51.657Z,7.00
2018-12-31T10:30:19.080Z,7.00
2018-12-31T10:32:46.458Z,7.00
2018-12-31T10:35:14.008Z,7.00
2018-12-31T10:37:41.380Z,7.10
2018-12-31T10:40:09.134Z,7.20
2018-12-31T10:42:36.591Z,7.20
2018-12-31T10:45:04.173Z,7.20
2018-12-31T10:47:31.550Z,7.20
2018-12-31T10:49:59.060Z,7.20
2018-12-31T10:52:26.537Z,7.20
2018-12-31T10:54:53.901Z,7.30
2018-12-31T10:57:21.412Z,7.30
2018-12-31T10:59:48.779Z,7.30
2018-12-31T11:02:16.253Z,7.30
2018-12-31T11:04:43.628Z,7.30
2018-12-31T11:07:11.185Z,7.20
2018-12-31T11:09:39.759Z,7.10
2018-12-31T11:12:07.208Z,7.20
2018-12-31T11:14:34.594Z,7.10
2018-12-31T11:17:02.023Z,7.10
2018-12-31T11:19:29.376Z,7.20
2018-12-31T11:21:56.906Z,7.20
2018-12-31T11:24:24.313Z,7.20
2018-12-31T11:26:51.749Z,7.20
2018-12-31T11:29:19.184Z,7.20
2018-12-31T11:31:46.771Z,7.30
2018-12-31T11:34:14.144Z,7.40
2018-12-31T11:36:41.511Z,7.30
2018-12-31T11:39:08.977Z,7.30
2018-12-31T11:41:36.371Z,7.40
2018-12-31T11:44:03.897Z,7.50
2018-12-31T11:46:31.314Z,7.60
2018-12-31T11:48:58.771Z,7.50
2018-12-31T11:51:26.129Z,7.60
2018-12-31T11:53:53.627Z,7.60
2018-12-31T11:56:21.134Z,7.60
2018-12-31T11:58:48.568Z,7.50
2018-12-31T12:01:15.945Z,7.50
2018-12-31T12:03:43.468Z,7.50
2018-12-31T12:06:10.920Z,7.40
2018-12-31T12:08:38.480Z,7.50
2018-12-31T12:11:05.819Z,7.60
2018-12-31T12:13:33.344Z,7.60
2018-12-31T12:16:00.699Z,7.60
2018-12-31T12:18:28.159Z,7.70
2018-12-31T12:20:55.607Z,7.70
2018-12-31T12:23:22.997Z,7.80
2018-12-31T12:25:50.936Z,7.90
2018-12-31T12:28:18.380Z,7.90
2018-12-31T12:30:45.800Z,8.00
2018-12-31T12:33:13.161Z,7.90
2018-12-31T12:35:40.732Z,7.90
2018-12-31T12:38:08.165Z,7.90
2018-12-31T12:40:35.720Z,7.80
2018-12-31T12:43:03.097Z,7.80
2018-12-31T12:45:30.657Z,7.70
2018-12-31T12:47:58.000Z,7.70
2018-12-31T12:50:25.480Z,7.80
2018-12-31T12:52:52.832Z,7.80
2018-12-31T12:55:20.326Z,7.80
2018-12-31T12:57:47.711Z,7.90
2018-12-31T13:00:15.165Z,8.00
2018-12-31T13:02:42.724Z,8.00
2018-12-31T13:05:10.129Z,8.10
2018-12-31T13:07:38.092Z,8.10
2018-12-31T13:10:05.566Z,8.20
2018-12-31T13:12:32.961Z,8.30
2018-12-31T13:15:00.433Z,8.40
2018-12-31T13:17:28.042Z,8.50
2018-12-31T13:19:55.437Z,8.60
2018-12-31T13:22:22.877Z,8.60
2018-12-31T13:24:50.233Z,8.70
2018-12-31T13:27:17.675Z,8.60
2018-12-31T13:29:45.023Z,8.60
2018-12-31T13:32:12.606Z,8.60
2018-12-31T13:34:40.443Z,8.50
2018-12-31T13:37:07.904Z,8.40
2018-12-31T13:39:35.415Z,8.30
2018-12-31T13:42:02.997Z,8.20
2018-12-31T13:44:30.386Z,8.20
2018-12-31T13:46:57.929Z,8.20
2018-12-31T13:49:25.313Z,8.10
2018-12-31T13:51:52.949Z,8.00
2018-12-31T13:54:20.480Z,8.00
2018-12-31T13:56:48.084Z,7.90
2018-12-31T13:59:15.629Z,7.90
2018-12-31T14:01:43.432Z,7.80
2018-12-31T14:04:10.941Z,7.70
2018-12-31T14:06:38.398Z,7.80
2018-12-31T14:09:06.615Z,7.80
2018-12-31T14:11:33.925Z,7.70
2018-12-31T14:14:01.450Z,7.80
2018-12-31T14:16:28.972Z,8.00
2018-12-31T14:18:56.436Z,8.10
2018-12-31T14:21:23.788Z,8.10
2018-12-31T14:23:51.301Z,8.20
2018-12-31T14:26:18.643Z,8.40
2018-12-31T14:28:46.422Z,8.50
2018-12-31T14:31:13.857Z,8.50
2018-12-31T14:33:41.473Z,8.50
2018-12-31T14:36:08.830Z,8.40
2018-12-31T14:38:36.350Z,8.30
2018-12-31T14:41:03.885Z,8.20
2018-12-31T14:43:31.775Z,8.20
2018-12-31T14:45:59.122Z,8.20
2018-12-31T14:48:26.492Z,8.30
2018-12-31T14:50:53.947Z,8.30
2018-12-31T14:53:21.319Z,8.20
2018-12-31T14:55:48.820Z,8.20
2018-12-31T14:58:16.363Z,8.20
2018-12-31T15:00:43.923Z,8.20
2018-12-31T15:03:11.273Z,8.20
2018-12-31T15:05:38.779Z,8.40
2018-12-31T15:08:06.300Z,8.40
2018-12-31T15:10:34.256Z,8.30
2018-12-31T15:13:01.634Z,8.40
2018-12-31T15:15:29.165Z,8.60
2018-12-31T15:17:56.673Z,8.60
2018-12-31T15:20:24.112Z,8.60
2018-12-31T15:22:51.586Z,8.60
2018-12-31T15:25:19.036Z,8.60
2018-12-31T15:27:46.611Z,8.60
2018-12-31T15:30:13.981Z,8.40
2018-12-31T15:32:41.433Z,8.40
2018-12-31T15:35:08.905Z,8.50
2018-12-31T15:37:36.461Z,8.50
2018-12-31T15:40:06.616Z,8.40
2018-12-31T15:42:34.217Z,8.50
2018-12-31T15:45:01.580Z,8.70
2018-12-31T15:47:29.113Z,8.70
2018-12-31T15:49:56.657Z,8.70
2018-12-31T15:52:24.785Z,8.70
2018-12-31T15:54:52.201Z,8.70
2018-12-31T15:57:19.676Z,8.60
2018-12-31T15:59:47.137Z,8.60
2018-12-31T16:02:14.622Z,8.70
2018-12-31T16:04:42.268Z,8.70
2018-12-31T16:07:09.792Z,8.50
2018-12-31T16:09:37.438Z,8.40
2018-12-31T16:12:04.925Z,8.30
2018-12-31T16:14:32.359Z,8.30
2018-12-31T16:16:59.837Z,8.30
2018-12-31T16:19:27.773Z,8.30
2018-12-31T16:21:55.227Z,8.30
2018-12-31T16:24:22.696Z,8.40
2018-12-31T16:26:50.053Z,8.30
2018-12-31T16:29:17.523Z,8.30
2018-12-31T16:31:44.898Z,8.20
2018-12-31T16:34:12.564Z,8.20
2018-12-31T16:36:39.986Z,8.20
2018-12-31T16:39:07.708Z,8.30
2018-12-31T16:41:35.152Z,8.30
2018-12-31T16:44:02.536Z,8.40
2018-12-31T16:46:30.148Z,8.40
2018-12-31T16:48:57.645Z,8.30
2018-12-31T16:51:25.186Z,8.20
2018-12-31T16:53:52.630Z,8.30
2018-12-31T16:56:20.107Z,8.30
2018-12-31T16:58:47.473Z,8.20
2018-12-31T17:01:15.303Z,8.30
2018-12-31T17:03:42.780Z,8.40
2018-12-31T17:06:10.240Z,8.40
2018-12-31T17:08:37.615Z,8.40
2018-12-31T17:11:05.145Z,8.60
2018-12-31T17:13:32.544Z,8.50
2018-12-31T17:16:00.130Z,8.60
2018-12-31T17:18:27.607Z,8.70
2018-12-31T17:20:55.061Z,8.80
2018-12-31T17:23:22.440Z,8.80
2018-12-31T17:25:49.783Z,8.80
2018-12-31T17:28:17.917Z,8.90
2018-12-31T17:30:45.688Z,8.90
2018-12-31T17:33:13.137Z,8.90
2018-12-31T17:35:40.501Z,9.00
2018-12-31T17:38:08.072Z,9.00
2018-12-31T17:40:35.525Z,9.00
2018-12-31T17:43:02.992Z,9.00
2018-12-31T17:45:30.337Z,9.00
2018-12-31T17:47:57.813Z,8.90
2018-12-31T17:50:25.193Z,8.80
2018-12-31T17:52:52.636Z,8.80
2018-12-31T17:55:19.986Z,8.80
2018-12-31T17:57:47.436Z,8.80
2018-12-31T18:00:14.826Z,8.90
2018-12-31T18:02:42.465Z,8.90
2018-12-31T18:05:09.817Z,9.00
2018-12-31T18:07:37.204Z,8.90
2018-12-31T18:10:06.749Z,8.80
2018-12-31T18:12:34.529Z,8.80
2018-12-31T18:15:02.094Z,8.80
2018-12-31T18:17:29.484Z,8.90
2018-12-31T18:19:56.915Z,8.80
2018-12-31T18:22:24.287Z,8.80
2018-12-31T18:24:51.801Z,8.80
2018-12-31T18:27:19.238Z,8.80
2018-12-31T18:29:46.668Z,8.80
2018-12-31T18:32:14.038Z,8.70
2018-12-31T18:34:41.578Z,8.60
2018-12-31T18:37:08.977Z,8.60
2018-12-31T18:39:36.413Z,8.60
2018-12-31T18:42:03.921Z,8.60
2018-12-31T18:44:31.478Z,8.60
2018-12-31T18:46:58.855Z,8.60
2018-12-31T18:49:26.284Z,8.60
2018-12-31T18:51:53.744Z,8.70
2018-12-31T18:54:21.088Z,8.80
2018-12-31T18:56:48.527Z,8.80
2018-12-31T18:59:15.913Z,8.80
2018-12-31T19:01:43.339Z,8.70
2018-12-31T19:04:10.716Z,8.70
2018-12-31T19:06:38.225Z,8.60
2018-12-31T19:09:06.587Z,8.40
2018-12-31T19:11:34.083Z,8.40
2018-12-31T19:14:01.570Z,8.50
2018-12-31T19:16:30.609Z,8.60
2018-12-31T19:18:58.240Z,8.70
2018-12-31T19:21:25.721Z,8.70
2018-12-31T19:23:53.085Z,8.70
2018-12-31T19:26:20.573Z,8.70
2018-12-31T19:28:47.951Z,8.70
2018-12-31T19:31:15.400Z,8.70
2018-12-31T19:33:42.840Z,8.70
2018-12-31T19:36:10.321Z,8.70
2018-12-31T19:38:37.739Z,8.70
2018-12-31T19:41:05.116Z,8.60
2018-12-31T19:43:33.824Z,8.60
2018-12-31T19:46:01.257Z,8.60
2018-12-31T19:48:28.808Z,8.50
2018-12-31T19:50:56.332Z,8.50
2018-12-31T19:53:23.844Z,8.40
2018-12-31T19:55:51.222Z,8.40
2018-12-31T19:58:18.706Z,8.50
2018-12-31T20:00:46.131Z,8.60
2018-12-31T20:03:13.740Z,8.60
2018-12-31T20:05:41.309Z,8.60
2018-12-31T20:08:08.805Z,8.60
2018-12-31T20:10:36.351Z,8.60
2018-12-31T20:13:03.780Z,8.60
2018-12-31T20:15:31.376Z,8.50
2018-12-31T20:17:58.868Z,8.40
2018-12-31T20:20:26.802Z,8.30
2018-12-31T20:22:54.243Z,8.30
2018-12-31T20:25:21.819Z,8.20
2018-12-31T20:27:49.279Z,8.20
2018-12-31T20:30:16.728Z,8.20
2018-12-31T20:32:44.083Z,8.30
2018-12-31T20:35:12.052Z,8.30
2018-12-31T20:37:39.505Z,8.30
2018-12-31T20:40:07.018Z,8.30
2018-12-31T20:42:34.436Z,8.20
2018-12-31T20:45:01.905Z,8.20
2018-12-31T20:47:29.381Z,8.30
2018-12-31T20:49:56.809Z,8.30
2018-12-31T20:52:24.348Z,8.30
2018-12-31T20:54:51.713Z,8.30
2018-12-31T20:57:19.431Z,8.30
2018-12-31T20:59:46.847Z,8.30
2018-12-31T21:02:14.526Z,8.20
2018-12-31T21:04:41.999Z,8.20
2018-12-31T21:07:09.580Z,8.30
2018-12-31T21:09:37.149Z,8.40
2018-12-31T21:12:04.602Z,8.40
2018-12-31T21:14:31.938Z,8.50
2018-12-31T21:16:59.580Z,8.50
2018-12-31T21:19:27.047Z,8.40
2018-12-31T21:21:54.629Z,8.50
2018-12-31T21:24:22.070Z,8.50
2018-12-31T21:26:49.560Z,8.50
2018-12-31T21:29:16.945Z,8.50
2018-12-31T21:31:44.398Z,8.50
2018-12-31T21:34:11.899Z,8.50
2018-12-31T21:36:39.252Z,8.50
2018-12-31T21:39:06.900Z,8.50
2018-12-31T21:41:34.316Z,8.60
2018-12-31T21:44:01.827Z,8.60
2018-12-31T21:46:29.176Z,8.60
2018-12-31T21:48:56.633Z,8.60
2018-12-31T21:51:24.035Z,8.60
2018-12-31T21:53:51.458Z,8.50
2018-12-31T21:56:18.836Z,8.50
2018-12-31T21:58:46.265Z,8.40
2018-12-31T22:01:13.642Z,8.40
2018-12-31T22:03:41.185Z,8.40
2018-12-31T22:06:08.715Z,8.40
2018-12-31T22:08:36.263Z,8.40
2018-12-31T22:11:03.716Z,8.40
2018-12-31T22:13:31.151Z,8.30
2018-12-31T22:15:58.573Z,8.40
2018-12-31T22:18:25.912Z,8.30
2018-12-31T22:20:53.348Z,8.20
2018-12-31T22:23:20.890Z,8.10
2018-12-31T22:25:48.528Z,8.10
2018-12-31T22:28:16.000Z,8.10
2018-12-31T22:30:43.457Z,8.20
2018-12-31T22:33:11.102Z,8.20
2018-12-31T22:35:38.544Z,8.30
2018-12-31T22:38:05.934Z,8.30
2018-12-31T22:40:33.529Z,8.10
2018-12-31T22:43:00.904Z,8.00
2018-12-31T22:45:29.835Z,8.00
2018-12-31T22:47:57.484Z,8.00
2018-12-31T22:50:24.953Z,8.10
2018-12-31T22:52:52.364Z,8.00
2018-12-31T22:55:19.811Z,8.00
2018-12-31T22:57:47.168Z,8.10
2018-12-31T23:00:14.766Z,8.00
2018-12-31T23:02:42.092Z,7.90
2018-12-31T23:05:11.040Z,7.90
2018-12-31T23:07:38.507Z,7.80
2018-12-31T23:10:07.288Z,7.80
2018-12-31T23:12:34.760Z,7.80
2018-12-31T23:15:04.353Z,7.90
2018-12-31T23:17:31.895Z,7.90
2018-12-31T23:19:59.376Z,7.90
2018-12-31T23:22:27.052Z,7.90
2018-12-31T23:24:54.438Z,7.90
2018-12-31T23:27:21.840Z,7.70
2018-12-31T23:29:49.292Z,7.70
2018-12-31T23:32:17.022Z,7.80
2018-12-31T23:34:44.616Z,7.80
2018-12-31T23:37:12.181Z,7.90
2018-12-31T23:39:39.531Z,7.80
2018-12-31T23:42:07.017Z,7.90
2018-12-31T23:44:34.412Z,7.90
2018-12-31T23:47:01.855Z,8.00
2018-12-31T23:49:29.326Z,8.00
2018-12-31T23:51:56.668Z,8.00
2018-12-31T23:54:24.145Z,8.10
2018-12-31T23:56:51.519Z,8.10
2018-12-31T23:59:18.929Z,8.10
